Increase/Decrease page font size.

Outstanding Checks

8/4/2021


This table includes checks issued by Travis County that remain outstanding.
Vendor Name Street Name City Zip Check Amount Payment Date
CITY OF LAGO VISTA PO Box 4727 LAGO VISTA 78645-0001 103.00 07/30/2021
CITY OF PFLUGERVILLE PO Box 589 PFLUGERVILLE 78691-0589 6,736.00 07/30/2021
CODE 4 EMERGENCY SERVICES LLC 1901 E 51ST ST STAGE 4 OFFICE 1 AUSTIN 78723 13,035.00 07/30/2021
COLLINS, RICHARD C 1621 WEST SIXTH STREET AUSTIN 78703 600.00 07/30/2021
CONSTELLATION NEW ENERGY INC PO Box 5471 CAROL STREAM 60197 344.00 07/30/2021
COOK WALDEN FUNERAL HOME 6100 N LAMAR BLVD AUSTIN 78752 1,200.00 07/30/2021
COTHRONS SAFE AND LOCK INC 8120 EXCHANGE DR STE 100 AUSTIN 78754 1,781.00 07/30/2021
DEPARTMENT OF STATE HEALTH SERVICES 4110 GUADALUPE ST AUSTIN 78751 1,378.00 07/30/2021
DIRECT ENERGY AND POWER TO GO PO Box 660896 DALLAS 75266 182.00 07/30/2021
DIRECTV GROUP INC PO Box 105249 ATLANTA 30348-5249 181.00 07/30/2021
DISINFX INC PO Box 730 SPRING BRANCH 78070 150.00 07/30/2021
DIVERSIFIED CHEMICAL AND SUPPLY INC 6356 CLARA RD HOUSTON 77041 153.00 07/30/2021
DIVERSIFIED CHEMICAL AND SUPPLY INC PO Box 1297 HUMBLE 77347-1297 417.00 07/30/2021
DLT SOLUTIONS, LLC PO Box 743359 ATLANTA 30374-3359 3,816.00 07/30/2021
DRAGOO INSURANCE AGENCY 1 CHISHOLM TRAIL STE 450 ROUND ROCK 78681 356.00 07/30/2021
EATON CORPORATION 29085 NETWORK PLACE CHICAGO 60673-1290 911.00 07/30/2021
EZZELL, EHREN S 1307 Nueces AUSTIN 78701 8,844.00 07/30/2021
FACILITIES RESOURCE INC 11100 METRIC BLVD STE 450 AUSTIN 78758 2,812.00 07/30/2021
FACILITY SOLUTIONS GROUP INC PO Box 674491 DALLAS 974.00 07/30/2021
FALCON CREST AVIATION SUPPLY INC 8318 BRANIFF STREET HOUSTON 77061 1,512.00 07/30/2021
FASTENAL COMPANY PO Box 1286 WINONA 55987-1286 1.00 07/30/2021
Federal Express Corporation PO Box 660481 DALLAS 75266-0481 84.00 07/30/2021
FEDEX PO Box 371461 PITTSBURGH 15250-7461 62.00 07/30/2021
FIRETRON, INC PO Box 1604 STAFFORD 77497 7,789.00 07/30/2021
Fox, Mykal Jarrett 404 W 13th St Austin 78701 625.00 07/30/2021
FRONTIER UTILITIES 5444 WESTHEIMER STE 1100 HOUSTON 77056 251.00 07/30/2021
GALLS PARENT HOLDINGS LLC PO Box 71628 CHICAGO 60694 1,228.00 07/30/2021
GAYLORD PALMS RESORT & CONV CENTER 6000 W OSCEOLA PKWY KISSIMMEE 34746 477.00 07/30/2021
GENTRY, RICHARD 1107 NUECES ST AUSTIN 78701 2,641.00 07/30/2021
GEXA ENERGY PO Box 692099 HOUSTON 77269 65.00 07/30/2021
GEXA ENERGY PO Box 660100 DALLAS 75266-0100 476.00 07/30/2021
GRAYBAR PO Box 840458 DALLAS 75284-0458 168.00 07/30/2021
GREEN PLAQUE LLC 4000 N CHARLES ST STE 707 BALTIMORE 21218 588.00 07/30/2021
GUITREAU VENTURES LLC PO Box 77274 BATON ROUGE 70879 420.00 07/30/2021
H & H OIL COMPANY (AUSTIN) 1331 GEMINI, SUITE 250 HOUSTON 77058 85.00 07/30/2021
HAMILTON ELECTRIC WORKS INC 3800 AIRPORT BLVD AUSTIN 78722 759.00 07/30/2021
HARDIES FRUIT AND VEGETABLES CO PO Box 671155 DALLAS 75267-1155 18,444.00 07/30/2021
HARGER, GARY D 807 GOLDEN OAKS RD GEORGETOWN 78628 624.00 07/30/2021
HARTING PLLC, TRACY L PO Box 1519 PFLUGERVILLE 78691-1519 8,800.00 07/30/2021
HBH MANAGEMENT LLC PO Box 6862 ROUND ROCK 78683 1,325.00 07/30/2021
HENRY SCHEIN INC DEPT CH 10241 PALATINE 60055-0241 163.00 07/30/2021
HILAND DAIRY PO Box 842125 KANSAS CITY 64184-2125 3,874.00 07/30/2021
HILL COUNTRY FENCE INC 6500 E HWY 71 SPICEWOOD 78669 2,021.00 07/30/2021
HILL COUNTRY SPRINGS PO Box 2220 MANCHACA 78652 29.00 07/30/2021
HINES RANC AND HOLUB 1307 NUECES STREET AUSTIN 78701 1,300.00 07/30/2021
HOLT CAT PO Box 650345 DALLAS 75265-0345 895.00 07/30/2021
HOME DEPOT CREDIT SERVICES PO Box 9001043 LOUISVILLE 40290-1043 1,327.00 07/30/2021
HORSESHOE BAY RESORT 200 HI CIRCLE N HORSESHOE BAY 78657 203.00 07/30/2021
HOV SERVICES INC PO Box 676114 DALLAS 75267-6114 411.00 07/30/2021
HR FLORIDA STATE COUNCIL INC PO Box 850001 ORLANDO 32885-9915 1,105.00 07/30/2021
Page 3 of 22